Time;durP1;ratioP1;P1;durP2;ratioP2;P2;SDS_P1;SDS_P2;PMS_P1;PMS_P2;Temp;Humidity;BMP_temperature;BMP_pressure;BME280_temperature;BME280_humidity;BME280_pressure;Samples;Min_cycle;Max_cycle;Signal;HPM_P1;HPM_P2
2022/10/22 00:02:06;;;;;;;16.93;12.87;;;;;;;13.85;100.00;100525.22;4914004;29;20464;-70
2022/10/22 00:04:36;;;;;;;21.33;12.77;;;;;;;13.85;100.00;100553.25;4914068;29;20843;-69
2022/10/22 00:07:07;;;;;;;18.87;13.67;;;;;;;13.90;100.00;100560.72;4914019;29;20441;-69
2022/10/22 00:09:35;;;;;;;20.90;12.70;;;;;;;13.85;100.00;100549.69;4914135;29;20420;-71
2022/10/22 00:12:06;;;;;;;16.67;12.30;;;;;;;13.90;100.00;100549.84;4913997;29;20785;-72
2022/10/22 00:14:38;;;;;;;18.07;14.30;;;;;;;13.97;100.00;100550.59;4911856;29;20404;-70
2022/10/22 00:17:07;;;;;;;19.00;15.47;;;;;;;13.90;100.00;100558.00;4907836;29;20419;-70
2022/10/22 00:19:40;;;;;;;19.13;12.20;;;;;;;13.93;100.00;100552.94;4914171;29;20498;-70
2022/10/22 00:22:11;;;;;;;14.90;12.23;;;;;;;13.99;100.00;100553.06;4914224;29;21003;-70
2022/10/22 00:24:40;;;;;;;18.07;13.50;;;;;;;13.97;100.00;100555.19;4912540;29;20456;-71
2022/10/22 00:27:11;;;;;;;18.40;13.20;;;;;;;14.04;100.00;100556.72;4914015;29;20516;-70
2022/10/22 00:29:40;;;;;;;14.77;13.20;;;;;;;13.93;100.00;100547.50;4895908;29;20448;-70
2022/10/22 00:32:09;;;;;;;15.70;11.73;;;;;;;13.91;100.00;100533.28;4912499;29;20412;-70
2022/10/22 00:34:38;;;;;;;14.90;12.07;;;;;;;13.94;100.00;100532.81;4912995;29;20795;-70
2022/10/22 00:37:09;;;;;;;12.50;11.20;;;;;;;13.95;100.00;100536.38;4916922;29;20425;-70
2022/10/22 00:39:38;;;;;;;17.60;12.77;;;;;;;13.92;100.00;100534.97;4918257;29;20465;-71
2022/10/22 00:42:07;;;;;;;18.00;12.40;;;;;;;13.94;100.00;100526.56;4913703;29;20412;-70
2022/10/22 00:45:00;;;;;;;21.00;12.37;;;;;;;13.96;100.00;100527.16;4913446;29;20437;-71
2022/10/22 00:47:33;;;;;;;12.83;10.23;;;;;;;13.94;100.00;100518.41;4914119;29;20473;-69
2022/10/22 00:50:05;;;;;;;13.70;12.00;;;;;;;13.99;100.00;100521.22;4914038;29;20412;-68
2022/10/22 00:52:36;;;;;;;16.53;12.33;;;;;;;13.91;100.00;100527.03;4914626;29;20951;-68
2022/10/22 00:55:06;;;;;;;14.40;11.50;;;;;;;13.85;100.00;100519.78;4914344;29;20526;-68
2022/10/22 00:57:36;;;;;;;13.27;11.83;;;;;;;13.79;100.00;100523.47;4908167;29;20412;-69
2022/10/22 01:00:06;;;;;;;15.40;11.87;;;;;;;13.78;100.00;100535.38;4909225;29;20434;-69
2022/10/22 01:02:36;;;;;;;18.20;12.20;;;;;;;13.83;100.00;100546.41;4912886;29;20462;-70
2022/10/22 01:05:05;;;;;;;14.13;10.33;;;;;;;13.83;100.00;100544.50;4914164;29;20946;-68
2022/10/22 01:07:40;;;;;;;14.50;12.00;;;;;;;13.86;100.00;100544.03;4913720;29;20449;-69
2022/10/22 01:10:17;;;;;;;14.00;11.40;;;;;;;13.80;100.00;100549.56;4913923;29;20437;-69
2022/10/22 01:12:54;;;;;;;19.57;13.33;;;;;;;13.73;100.00;100546.13;4913638;29;20524;-69
2022/10/22 01:15:32;;;;;;;14.43;11.40;;;;;;;13.73;100.00;100548.84;4913990;29;20432;-69
2022/10/22 01:18:06;;;;;;;19.10;12.83;;;;;;;13.76;100.00;100554.66;4912390;29;20437;-68
2022/10/22 01:20:51;;;;;;;16.80;13.23;;;;;;;13.86;100.00;100559.53;4914014;29;20445;-69
2022/10/22 01:23:54;;;;;;;19.27;11.80;;;;;;;13.90;100.00;100553.41;4909298;29;20437;-69
2022/10/22 01:26:33;;;;;;;15.50;11.47;;;;;;;13.99;100.00;100536.75;4914050;29;20453;-69
2022/10/22 01:29:10;;;;;;;16.47;10.93;;;;;;;14.09;100.00;100543.25;4907852;29;20412;-70
2022/10/22 01:31:44;;;;;;;16.50;13.50;;;;;;;14.12;100.00;100547.41;4909518;29;20431;-68
2022/10/22 01:34:15;;;;;;;18.63;12.63;;;;;;;14.02;100.00;100539.00;4915284;29;20427;-68
2022/10/22 01:36:45;;;;;;;21.13;13.10;;;;;;;13.97;100.00;100541.59;4914956;29;20524;-69
2022/10/22 01:39:16;;;;;;;19.70;13.20;;;;;;;14.01;100.00;100540.88;4913061;29;20509;-70
2022/10/22 01:41:45;;;;;;;16.33;11.63;;;;;;;13.94;100.00;100540.19;4915667;29;20412;-69
2022/10/22 01:44:27;;;;;;;16.13;12.67;;;;;;;13.92;100.00;100550.44;4915890;29;20419;-69
2022/10/22 01:47:11;;;;;;;20.17;12.93;;;;;;;13.86;100.00;100543.22;4915020;29;20460;-69
2022/10/22 01:50:09;;;;;;;16.90;11.90;;;;;;;13.84;100.00;100540.75;4891549;29;21008;-68
2022/10/22 01:52:55;;;;;;;15.60;12.27;;;;;;;13.76;100.00;100532.91;4881931;29;20420;-69
2022/10/22 01:55:31;;;;;;;15.90;12.10;;;;;;;13.70;100.00;100541.16;4912338;29;20432;-69
2022/10/22 01:58:12;;;;;;;21.90;12.90;;;;;;;13.67;100.00;100536.16;4913786;29;20420;-69
2022/10/22 02:00:50;;;;;;;13.90;12.40;;;;;;;13.59;100.00;100537.34;4913368;29;20420;-69
2022/10/22 02:03:26;;;;;;;17.23;12.40;;;;;;;13.63;100.00;100534.97;4913655;29;20437;-69
2022/10/22 02:05:59;;;;;;;17.27;11.73;;;;;;;13.64;100.00;100532.03;4913288;29;20439;-69
2022/10/22 02:08:35;;;;;;;18.53;14.30;;;;;;;13.85;100.00;100546.97;4913328;29;20428;-69
2022/10/22 02:11:06;;;;;;;20.60;14.03;;;;;;;13.84;100.00;100554.34;4913071;29;20473;-72
2022/10/22 02:13:40;;;;;;;17.20;12.27;;;;;;;13.75;100.00;100563.03;4913415;29;20919;-70
2022/10/22 02:16:14;;;;;;;15.73;12.00;;;;;;;13.77;100.00;100552.75;4907499;29;20457;-69
2022/10/22 02:18:47;;;;;;;20.03;12.97;;;;;;;13.73;100.00;100554.28;4911790;29;20443;-70
2022/10/22 02:21:17;;;;;;;14.20;11.40;;;;;;;13.67;100.00;100549.75;4895778;29;20783;-70
2022/10/22 02:23:46;;;;;;;15.70;12.93;;;;;;;13.70;100.00;100549.31;4912682;29;20484;-70
2022/10/22 02:26:21;;;;;;;17.93;12.53;;;;;;;13.73;100.00;100543.41;4912282;29;20471;-71
2022/10/22 02:28:59;;;;;;;14.57;12.13;;;;;;;13.75;100.00;100538.56;4912857;29;20523;-71
2022/10/22 02:31:32;;;;;;;16.50;12.03;;;;;;;13.75;100.00;100531.22;4912769;29;20474;-70
2022/10/22 02:34:07;;;;;;;17.73;12.67;;;;;;;13.66;100.00;100535.34;4913110;29;20472;-70
2022/10/22 02:36:37;;;;;;;18.73;13.33;;;;;;;13.67;100.00;100544.31;4913037;29;20876;-69
2022/10/22 02:39:10;;;;;;;14.10;11.40;;;;;;;13.61;100.00;100535.19;4913061;29;20520;-70
2022/10/22 02:41:39;;;;;;;14.57;12.07;;;;;;;13.71;100.00;100545.53;4912604;29;20507;-70
2022/10/22 02:44:10;;;;;;;19.80;12.30;;;;;;;13.65;100.00;100541.03;4914289;29;21022;-71
2022/10/22 02:46:42;;;;;;;17.57;12.10;;;;;;;13.58;100.00;100543.00;4914088;29;21007;-72
2022/10/22 02:49:11;;;;;;;16.00;11.37;;;;;;;13.53;100.00;100548.28;4915023;29;20427;-70
2022/10/22 02:51:40;;;;;;;15.37;12.60;;;;;;;13.44;100.00;100545.91;4911158;29;20472;-70
2022/10/22 02:54:09;;;;;;;14.43;10.57;;;;;;;13.46;100.00;100545.66;4906746;29;20895;-70
2022/10/22 02:56:38;;;;;;;17.20;11.40;;;;;;;13.41;100.00;100551.78;4910022;29;20473;-71
2022/10/22 02:59:07;;;;;;;14.27;12.17;;;;;;;13.38;100.00;100554.97;4906387;29;20465;-69
2022/10/22 03:01:36;;;;;;;16.50;11.87;;;;;;;13.40;100.00;100558.28;4910011;29;20468;-70
2022/10/22 03:04:06;;;;;;;16.77;11.53;;;;;;;13.36;100.00;100554.34;4906251;29;20416;-69
2022/10/22 03:06:35;;;;;;;12.97;10.67;;;;;;;13.33;100.00;100565.69;4911275;29;20436;-69
2022/10/22 03:09:04;;;;;;;15.57;10.63;;;;;;;13.37;100.00;100552.47;4910498;29;20488;-69
2022/10/22 03:11:33;;;;;;;17.10;11.83;;;;;;;13.32;100.00;100553.16;4916416;29;20503;-70
2022/10/22 03:14:02;;;;;;;16.97;12.10;;;;;;;13.37;100.00;100545.16;4916413;29;20418;-70
2022/10/22 03:16:31;;;;;;;19.17;12.20;;;;;;;13.32;100.00;100542.28;4916672;29;20523;-71
2022/10/22 03:19:00;;;;;;;15.13;12.17;;;;;;;13.35;100.00;100544.56;4915932;29;20442;-72
2022/10/22 03:21:36;;;;;;;18.80;12.40;;;;;;;13.37;100.00;100542.44;4915949;29;20490;-69
2022/10/22 03:24:09;;;;;;;15.03;11.70;;;;;;;13.33;100.00;100540.41;4916642;29;20523;-70
2022/10/22 03:26:41;;;;;;;20.50;11.43;;;;;;;13.32;100.00;100536.00;4916093;29;20436;-70
2022/10/22 03:29:11;;;;;;;16.27;12.83;;;;;;;13.37;100.00;100533.44;4915184;29;20408;-70
2022/10/22 03:31:40;;;;;;;20.73;12.10;;;;;;;13.39;100.00;100531.34;4915171;29;20508;-69
2022/10/22 03:34:10;;;;;;;18.80;11.80;;;;;;;13.48;100.00;100541.66;4915179;29;20642;-69
2022/10/22 03:36:41;;;;;;;17.07;13.10;;;;;;;13.48;100.00;100541.66;4914946;29;20880;-70
2022/10/22 03:39:12;;;;;;;16.67;12.00;;;;;;;13.41;100.00;100540.91;4900140;29;20941;-69
2022/10/22 03:41:41;;;;;;;16.53;11.67;;;;;;;13.41;100.00;100540.91;4915225;29;20400;-68
2022/10/22 03:44:10;;;;;;;17.90;13.10;;;;;;;13.42;100.00;100539.03;4915342;29;20416;-69
2022/10/22 03:46:39;;;;;;;15.00;11.10;;;;;;;13.54;100.00;100545.34;4898197;29;21085;-68
2022/10/22 03:49:08;;;;;;;24.30;12.53;;;;;;;13.51;100.00;100545.78;4915037;29;20899;-73
2022/10/22 03:51:37;;;;;;;19.90;12.70;;;;;;;13.52;100.00;100547.47;4915668;29;20401;-69
2022/10/22 03:54:07;;;;;;;18.97;11.60;;;;;;;13.56;100.00;100547.81;4915577;29;20471;-70
2022/10/22 03:56:36;;;;;;;15.10;11.17;;;;;;;13.55;100.00;100551.63;4915870;29;20485;-70
2022/10/22 03:59:05;;;;;;;15.33;12.00;;;;;;;13.51;100.00;100553.94;4915151;29;20456;-70
2022/10/22 04:01:34;;;;;;;17.80;12.37;;;;;;;13.60;100.00;100560.75;4898046;29;20529;-70
2022/10/22 04:04:03;;;;;;;16.43;11.23;;;;;;;13.54;100.00;100560.84;4916583;29;20947;-70
2022/10/22 04:06:32;;;;;;;15.77;12.30;;;;;;;13.53;100.00;100559.16;4914932;29;20420;-68
2022/10/22 04:09:01;;;;;;;15.27;10.73;;;;;;;13.57;100.00;100563.06;4914468;29;20483;-72
2022/10/22 04:11:31;;;;;;;17.10;12.07;;;;;;;13.61;100.00;100567.81;4915301;29;20404;-69
2022/10/22 04:14:00;;;;;;;14.13;11.20;;;;;;;13.53;100.00;100580.91;4914950;29;20414;-69
2022/10/22 04:16:31;;;;;;;15.20;11.80;;;;;;;13.54;100.00;100577.16;4914261;29;20479;-70
2022/10/22 04:19:00;;;;;;;27.93;13.83;;;;;;;13.54;100.00;100577.97;4913555;29;20396;-70
2022/10/22 04:21:29;;;;;;;16.73;11.77;;;;;;;13.53;100.00;100580.91;4914150;29;20469;-69
2022/10/22 04:23:58;;;;;;;22.17;12.83;;;;;;;13.55;100.00;100581.53;4914303;29;20493;-70
2022/10/22 04:26:27;;;;;;;15.23;11.70;;;;;;;13.57;100.00;100584.81;4914520;29;20455;-70
2022/10/22 04:28:57;;;;;;;13.00;11.50;;;;;;;13.54;100.00;100593.44;4912541;29;20491;-70
2022/10/22 04:31:27;;;;;;;13.67;12.13;;;;;;;13.51;100.00;100588.50;4914146;29;20405;-70
2022/10/22 04:33:57;;;;;;;14.20;12.30;;;;;;;13.41;100.00;100584.38;4914509;29;20770;-71
2022/10/22 04:36:26;;;;;;;16.00;10.30;;;;;;;13.47;100.00;100594.34;4914571;29;20427;-71
2022/10/22 04:38:57;;;;;;;12.97;10.10;;;;;;;13.47;100.00;100588.91;4914050;29;20438;-70
2022/10/22 04:41:27;;;;;;;14.77;11.17;;;;;;;13.50;100.00;100593.09;4914075;29;21073;-71
2022/10/22 04:43:58;;;;;;;14.57;11.27;;;;;;;13.42;100.00;100586.06;4914156;29;20404;-70
2022/10/22 04:46:33;;;;;;;15.27;11.40;;;;;;;13.45;100.00;100584.78;4914215;29;20706;-70
2022/10/22 04:49:03;;;;;;;16.23;10.80;;;;;;;13.46;100.00;100576.38;4914308;29;20418;-71
2022/10/22 04:51:33;;;;;;;15.60;11.50;;;;;;;13.50;100.00;100576.78;4914103;29;20470;-72
2022/10/22 04:54:01;;;;;;;16.40;11.93;;;;;;;13.45;100.00;100580.19;4913957;29;20808;-71
2022/10/22 04:56:31;;;;;;;18.37;12.50;;;;;;;13.40;100.00;100576.47;4896755;29;20463;-72
2022/10/22 04:59:04;;;;;;;16.47;12.33;;;;;;;13.31;100.00;100567.00;4913641;29;20437;-71
2022/10/22 05:01:35;;;;;;;14.73;11.37;;;;;;;13.35;100.00;100569.03;4914126;29;20428;-70
2022/10/22 05:04:13;;;;;;;15.57;11.60;;;;;;;13.32;100.00;100574.91;4913732;29;20936;-70
2022/10/22 05:06:42;;;;;;;16.03;12.03;;;;;;;13.39;100.00;100581.09;4914175;29;20935;-69
2022/10/22 05:09:14;;;;;;;15.67;12.03;;;;;;;13.41;100.00;100578.13;4914400;29;20484;-73
2022/10/22 05:11:47;;;;;;;21.60;13.23;;;;;;;13.28;100.00;100579.13;4914390;29;20504;-74
2022/10/22 05:14:19;;;;;;;14.73;11.10;;;;;;;13.28;100.00;100581.84;4914875;29;20559;-70
2022/10/22 05:16:48;;;;;;;15.53;12.00;;;;;;;13.26;100.00;100583.16;4914459;29;20502;-71
2022/10/22 05:19:19;;;;;;;15.67;12.47;;;;;;;13.29;100.00;100580.78;4913645;29;20487;-73
2022/10/22 05:21:48;;;;;;;16.03;11.50;;;;;;;13.28;100.00;100589.16;4913687;29;20428;-71
2022/10/22 05:24:17;;;;;;;17.30;12.30;;;;;;;13.21;100.00;100583.81;4913805;29;20757;-71
2022/10/22 05:26:48;;;;;;;19.43;11.70;;;;;;;13.16;100.00;100586.38;4913667;29;20943;-70
2022/10/22 05:29:19;;;;;;;21.90;12.30;;;;;;;13.12;100.00;100590.59;4914086;29;20903;-70
2022/10/22 05:31:48;;;;;;;17.10;12.33;;;;;;;13.00;100.00;100589.66;4913799;29;20395;-70
2022/10/22 05:34:17;;;;;;;16.10;11.27;;;;;;;13.10;100.00;100587.25;4914061;29;20436;-70
2022/10/22 05:36:46;;;;;;;17.80;10.83;;;;;;;13.08;100.00;100592.91;4914086;29;20485;-73
2022/10/22 05:39:15;;;;;;;16.60;12.23;;;;;;;13.01;100.00;100596.75;4914768;29;20388;-69
2022/10/22 05:41:44;;;;;;;19.93;11.73;;;;;;;12.98;100.00;100594.47;4914030;29;20439;-71
2022/10/22 05:44:13;;;;;;;20.57;12.27;;;;;;;12.99;100.00;100593.44;4896649;29;20953;-71
2022/10/22 05:46:43;;;;;;;14.63;11.63;;;;;;;12.96;100.00;100593.88;4912951;29;20460;-69
2022/10/22 05:49:14;;;;;;;16.20;11.90;;;;;;;13.12;100.00;100606.09;4913319;29;20777;-70
2022/10/22 05:51:43;;;;;;;15.83;13.10;;;;;;;13.08;100.00;100605.66;4913138;29;20421;-70
2022/10/22 05:54:17;;;;;;;15.17;12.07;;;;;;;13.00;100.00;100614.09;4913100;29;20520;-70
2022/10/22 05:56:46;;;;;;;12.93;10.50;;;;;;;12.96;100.00;100612.91;4913431;29;20420;-70
2022/10/22 05:59:15;;;;;;;20.37;11.40;;;;;;;12.98;100.00;100608.06;4913534;29;20408;-70
2022/10/22 06:01:45;;;;;;;18.43;13.43;;;;;;;13.13;100.00;100605.84;4913255;29;20439;-69
2022/10/22 06:04:15;;;;;;;16.93;12.23;;;;;;;13.03;100.00;100613.66;4913595;29;20431;-70
2022/10/22 06:06:46;;;;;;;15.50;12.27;;;;;;;13.00;100.00;100614.09;4914004;29;20435;-71
2022/10/22 06:09:18;;;;;;;15.10;10.80;;;;;;;12.98;100.00;100608.06;4913211;29;20442;-69
2022/10/22 06:11:48;;;;;;;12.70;10.43;;;;;;;12.96;100.00;100615.63;4913138;29;20468;-69
2022/10/22 06:14:17;;;;;;;20.00;13.40;;;;;;;13.19;100.00;100617.69;4912954;29;20438;-70
2022/10/22 06:16:48;;;;;;;16.17;13.00;;;;;;;13.19;100.00;100623.97;4912894;29;20431;-70
2022/10/22 06:19:19;;;;;;;20.10;12.50;;;;;;;13.10;100.00;100622.56;4913262;29;20396;-71
2022/10/22 06:21:48;;;;;;;17.13;12.93;;;;;;;13.13;100.00;100621.31;4913482;29;20439;-69
2022/10/22 06:24:17;;;;;;;13.70;10.00;;;;;;;13.18;100.00;100626.91;4913549;29;20416;-72
2022/10/22 06:26:49;;;;;;;15.07;12.97;;;;;;;13.28;100.00;100622.59;4913186;29;20443;-69
2022/10/22 06:29:18;;;;;;;13.70;10.87;;;;;;;13.32;100.00;100628.41;4914311;29;20403;-69
2022/10/22 06:31:49;;;;;;;16.87;13.30;;;;;;;13.41;100.00;100633.31;4913859;29;20433;-70
2022/10/22 06:34:18;;;;;;;15.40;12.50;;;;;;;13.54;100.00;100634.22;4913177;29;20432;-74
2022/10/22 06:36:48;;;;;;;22.23;12.77;;;;;;;13.70;100.00;100647.22;4913094;29;20461;-69
2022/10/22 06:39:18;;;;;;;18.70;11.90;;;;;;;13.84;100.00;100644.09;4913450;29;20811;-70
2022/10/22 06:41:47;;;;;;;17.50;13.83;;;;;;;13.74;100.00;100640.25;4914856;29;20436;-69
2022/10/22 06:44:19;;;;;;;19.43;12.20;;;;;;;13.73;100.00;100647.59;4915822;29;20408;-69
2022/10/22 06:46:51;;;;;;;17.43;12.27;;;;;;;13.89;100.00;100657.81;4916522;29;20521;-72
2022/10/22 06:49:21;;;;;;;16.27;11.87;;;;;;;13.84;100.00;100645.97;4916789;29;20920;-73
2022/10/22 06:51:51;;;;;;;24.63;14.40;;;;;;;13.84;100.00;100654.16;4916356;29;20463;-70
2022/10/22 06:54:20;;;;;;;17.43;12.70;;;;;;;13.90;100.00;100653.19;4916124;29;20444;-72
2022/10/22 06:56:49;;;;;;;15.90;12.23;;;;;;;13.88;100.00;100655.34;4898955;29;20444;-72
2022/10/22 06:59:18;;;;;;;21.30;12.53;;;;;;;13.97;100.00;100656.69;4916076;29;20834;-71
2022/10/22 07:01:47;;;;;;;19.87;13.47;;;;;;;14.12;100.00;100651.66;4916261;29;20979;-70
2022/10/22 07:04:17;;;;;;;14.87;11.13;;;;;;;14.09;100.00;100652.09;4916014;29;20396;-71
2022/10/22 07:06:46;;;;;;;17.67;12.87;;;;;;;14.16;100.00;100657.47;4916078;29;20471;-70
2022/10/22 07:09:15;;;;;;;14.77;11.47;;;;;;;14.32;100.00;100664.97;4916444;29;20439;-70
2022/10/22 07:11:47;;;;;;;21.93;13.23;;;;;;;14.37;100.00;100661.59;4899269;29;20795;-68
2022/10/22 07:14:16;;;;;;;16.43;13.17;;;;;;;14.51;100.00;100657.59;4916200;29;20431;-71
2022/10/22 07:16:45;;;;;;;15.60;12.60;;;;;;;14.50;100.00;100666.81;4916198;29;20453;-71
2022/10/22 07:19:15;;;;;;;15.37;13.43;;;;;;;14.63;100.00;100674.78;4916268;29;20419;-73
2022/10/22 07:21:44;;;;;;;13.77;11.73;;;;;;;14.61;100.00;100677.75;4916727;29;20432;-72
2022/10/22 07:24:13;;;;;;;17.53;12.87;;;;;;;14.63;100.00;100680.22;4916361;29;20400;-69
2022/10/22 07:26:42;;;;;;;15.53;11.97;;;;;;;14.72;100.00;100684.25;4917072;29;20468;-69
2022/10/22 07:29:11;;;;;;;17.43;13.43;;;;;;;14.75;100.00;100683.81;4917518;29;20437;-72
2022/10/22 07:31:40;;;;;;;16.13;12.57;;;;;;;14.74;100.00;100688.44;4917122;29;20426;-69
2022/10/22 07:34:09;;;;;;;15.53;10.77;;;;;;;14.80;100.00;100686.66;4917042;29;20843;-72
2022/10/22 07:36:40;;;;;;;14.70;10.57;;;;;;;14.98;100.00;100700.19;4916317;29;20431;-70
2022/10/22 07:39:09;;;;;;;15.83;12.27;;;;;;;15.29;100.00;100703.63;4916524;29;20430;-71
2022/10/22 07:41:38;;;;;;;10.67;9.57;;;;;;;15.51;100.00;100716.44;4916627;29;20440;-73
2022/10/22 07:44:06;;;;;;;16.53;11.40;;;;;;;15.58;100.00;100710.88;4917256;29;20404;-70
2022/10/22 07:46:35;;;;;;;14.03;10.60;;;;;;;15.52;100.00;100712.66;4916868;29;20428;-69
2022/10/22 07:49:04;;;;;;;14.90;12.20;;;;;;;15.45;100.00;100713.78;4916118;29;20507;-70
2022/10/22 07:51:33;;;;;;;13.93;11.40;;;;;;;15.65;99.77;100712.38;4918169;29;20436;-69
2022/10/22 07:54:04;;;;;;;15.43;10.83;;;;;;;15.70;98.87;100722.59;4904705;29;20467;-71
2022/10/22 07:56:33;;;;;;;15.40;11.07;;;;;;;15.75;97.87;100719.97;4926354;29;20455;-71
2022/10/22 07:59:01;;;;;;;16.03;11.20;;;;;;;15.78;97.66;100724.13;4916317;29;20432;-74
2022/10/22 08:01:30;;;;;;;15.20;11.90;;;;;;;15.83;98.32;100729.69;4919256;29;20499;-73
2022/10/22 08:03:59;;;;;;;14.40;10.40;;;;;;;15.98;95.69;100730.81;4939946;29;20422;-74
2022/10/22 08:06:28;;;;;;;14.10;10.40;;;;;;;15.96;95.43;100730.25;4938726;29;20457;-72
2022/10/22 08:08:57;;;;;;;11.10;9.43;;;;;;;15.96;95.12;100738.44;4926028;29;20428;-73
2022/10/22 08:11:27;;;;;;;12.67;10.50;;;;;;;15.85;96.21;100742.00;4927298;29;20437;-71
2022/10/22 08:13:56;;;;;;;13.73;10.57;;;;;;;15.72;97.44;100734.09;4924193;29;20461;-69
2022/10/22 08:16:34;;;;;;;16.53;11.77;;;;;;;15.59;97.69;100732.44;4913115;29;20461;-72
2022/10/22 08:19:03;;;;;;;14.63;10.40;;;;;;;15.74;97.52;100737.38;4901807;29;20408;-72
2022/10/22 08:21:32;;;;;;;14.33;10.07;;;;;;;15.73;96.71;100740.38;4918631;29;20465;-71
2022/10/22 08:24:01;;;;;;;11.20;8.97;;;;;;;15.69;97.02;100729.09;4919389;29;20509;-71
2022/10/22 08:26:31;;;;;;;16.30;10.80;;;;;;;15.70;96.56;100738.94;4919478;29;20428;-70
2022/10/22 08:29:00;;;;;;;18.20;10.63;;;;;;;15.63;97.35;100735.53;4918218;29;20497;-70
2022/10/22 08:31:29;;;;;;;12.67;10.70;;;;;;;15.70;97.77;100741.66;4918138;29;20444;-68
2022/10/22 08:33:58;;;;;;;13.70;10.43;;;;;;;15.63;98.18;100739.09;4917192;29;20452;-71
2022/10/22 08:36:27;;;;;;;14.73;11.03;;;;;;;15.87;96.78;100745.34;4916433;29;20432;-70
2022/10/22 08:38:56;;;;;;;18.70;12.10;;;;;;;15.97;96.68;100761.09;4915571;29;20509;-69
2022/10/22 08:41:26;;;;;;;19.50;13.53;;;;;;;16.00;95.66;100757.88;4915400;29;20475;-69
2022/10/22 08:44:18;;;;;;;13.07;10.17;;;;;;;15.89;96.29;100762.28;4916031;29;20819;-71
2022/10/22 08:47:12;;;;;;;13.20;11.83;;;;;;;15.96;95.82;100763.00;4915756;29;20457;-70
2022/10/22 08:49:47;;;;;;;11.33;10.13;;;;;;;15.72;97.25;100766.81;4915254;29;20408;-69
2022/10/22 08:52:19;;;;;;;14.07;10.87;;;;;;;15.78;97.81;100765.06;4914743;29;20416;-69
2022/10/22 08:54:53;;;;;;;16.53;11.07;;;;;;;16.00;96.29;100775.09;4915616;29;20460;-70
2022/10/22 08:57:49;;;;;;;15.90;10.40;;;;;;;16.07;96.05;100770.31;4914482;29;20923;-70
2022/10/22 09:00:28;;;;;;;15.67;11.87;;;;;;;16.21;95.15;100770.06;4914697;29;20393;-69
2022/10/22 09:03:10;;;;;;;18.80;12.63;;;;;;;16.14;95.94;100783.00;4903375;29;20475;-70
2022/10/22 09:05:47;;;;;;;15.40;11.07;;;;;;;16.12;95.00;100779.69;4914569;29;20432;-70
2022/10/22 09:08:19;;;;;;;14.73;11.17;;;;;;;15.98;95.99;100790.84;4914133;29;20457;-70
2022/10/22 09:10:52;;;;;;;15.33;11.07;;;;;;;16.01;95.78;100776.75;4914419;29;20420;-70
2022/10/22 09:13:22;;;;;;;20.13;16.03;;;;;;;15.90;96.34;100782.22;4915113;29;20536;-70
2022/10/22 09:15:59;;;;;;;13.60;10.97;;;;;;;16.16;95.61;100786.31;4913986;29;20465;-70
2022/10/22 09:18:41;;;;;;;17.07;11.47;;;;;;;16.37;93.79;100789.22;4913995;29;20437;-70
2022/10/22 09:21:22;;;;;;;13.80;11.00;;;;;;;16.19;94.93;100783.94;4896569;29;20790;-70
2022/10/22 09:24:05;;;;;;;13.87;9.87;;;;;;;15.95;96.07;100794.06;4914148;29;20469;-69
2022/10/22 09:26:37;;;;;;;13.70;11.07;;;;;;;16.13;95.63;100789.53;4914598;29;20423;-68
2022/10/22 09:29:07;;;;;;;14.67;11.50;;;;;;;16.36;94.77;100797.69;4915095;29;20408;-69
2022/10/22 09:31:37;;;;;;;21.20;10.70;;;;;;;16.15;93.73;100790.97;4914509;29;20956;-69
2022/10/22 09:34:06;;;;;;;13.67;11.40;;;;;;;16.29;94.32;100802.44;4914229;29;20400;-69
2022/10/22 09:36:37;;;;;;;10.50;9.50;;;;;;;16.44;93.86;100791.81;4913722;29;20461;-69
2022/10/22 09:39:24;;;;;;;14.07;10.23;;;;;;;16.64;92.38;100800.44;4915305;29;20661;-70
2022/10/22 09:41:53;;;;;;;16.20;11.30;;;;;;;16.50;92.15;100802.59;4913235;29;20419;-69
2022/10/22 09:44:22;;;;;;;11.93;10.50;;;;;;;16.70;91.32;100802.16;4915188;29;20459;-68
2022/10/22 09:46:52;;;;;;;16.47;10.40;;;;;;;16.92;89.76;100794.94;4896662;29;20465;-69
2022/10/22 09:49:23;;;;;;;13.87;10.10;;;;;;;17.09;89.70;100805.09;4914083;29;20433;-70
2022/10/22 09:51:54;;;;;;;12.33;9.67;;;;;;;17.33;88.32;100799.19;4913518;29;20408;-69
2022/10/22 09:54:25;;;;;;;12.20;10.17;;;;;;;17.54;86.62;100808.56;4914565;29;20418;-70
2022/10/22 09:56:57;;;;;;;15.27;10.80;;;;;;;17.52;86.37;100807.16;4913604;29;20457;-71
2022/10/22 09:59:30;;;;;;;11.10;8.67;;;;;;;17.43;86.70;100803.19;4914262;29;20441;-69
2022/10/22 10:02:13;;;;;;;12.87;10.03;;;;;;;17.27;87.19;100824.00;4904530;29;20461;-69
2022/10/22 10:04:56;;;;;;;10.20;8.30;;;;;;;17.11;89.20;100817.41;4913542;29;20780;-70
2022/10/22 10:07:27;;;;;;;11.43;10.13;;;;;;;16.96;88.72;100819.88;4913424;29;20453;-70
2022/10/22 10:09:57;;;;;;;11.70;9.00;;;;;;;16.84;89.83;100825.41;4932574;23;20466;-72
2022/10/22 10:12:39;;;;;;;14.43;10.63;;;;;;;16.90;89.80;100824.41;4920120;29;20429;-71
2022/10/22 10:15:19;;;;;;;14.40;11.53;;;;;;;16.65;91.35;100821.22;4923420;29;20453;-74
2022/10/22 10:17:58;;;;;;;14.90;10.97;;;;;;;16.79;90.85;100821.75;4932675;29;20847;-72
2022/10/22 10:20:35;;;;;;;14.20;10.77;;;;;;;16.84;90.82;100825.41;4927190;29;20437;-72
2022/10/22 10:23:12;;;;;;;13.60;10.20;;;;;;;16.87;90.67;100811.25;4912122;29;20465;-73
2022/10/22 10:25:54;;;;;;;11.97;10.30;;;;;;;17.19;88.73;100822.47;4904605;29;20461;-72
2022/10/22 10:28:39;;;;;;;13.63;11.10;;;;;;;17.29;88.36;100816.34;4923698;29;20779;-72
2022/10/22 10:31:17;;;;;;;13.80;11.40;;;;;;;17.41;88.05;100824.47;4912355;29;20420;-71
2022/10/22 10:33:56;;;;;;;13.50;10.70;;;;;;;17.52;86.96;100816.19;4928650;29;20449;-71
2022/10/22 10:36:34;;;;;;;13.70;10.83;;;;;;;17.61;85.45;100819.38;4924618;29;20676;-71
2022/10/22 10:39:08;;;;;;;11.43;9.97;;;;;;;17.48;85.76;100817.75;4921092;29;20433;-71
2022/10/22 10:41:46;;;;;;;20.93;11.93;;;;;;;17.52;86.96;100813.47;4908545;29;20495;-72
2022/10/22 10:44:37;;;;;;;15.53;11.60;;;;;;;17.36;86.94;100817.03;4916981;29;20556;-73
2022/10/22 10:47:21;;;;;;;13.83;10.53;;;;;;;17.23;87.71;100812.69;4923055;29;20440;-71
2022/10/22 10:49:57;;;;;;;15.20;11.83;;;;;;;17.23;87.44;100817.34;4907804;29;20915;-71
2022/10/22 10:52:33;;;;;;;13.27;11.40;;;;;;;17.34;86.64;100816.44;4903410;29;20449;-71
2022/10/22 10:55:18;;;;;;;14.10;10.73;;;;;;;17.26;87.54;100816.84;4897878;29;20436;-71
2022/10/22 10:57:59;;;;;;;15.10;11.27;;;;;;;17.47;86.91;100820.75;4928968;29;20432;-71
2022/10/22 11:00:38;;;;;;;17.87;13.13;;;;;;;17.58;85.81;100817.91;4912434;29;20524;-71
2022/10/22 11:03:54;;;;;;;13.43;11.00;;;;;;;17.77;84.91;100827.53;4925917;29;20408;-72
2022/10/22 11:06:26;;;;;;;17.07;11.47;;;;;;;17.99;84.09;100826.78;4838673;29;20461;-71
2022/10/22 11:08:59;;;;;;;14.37;11.47;;;;;;;18.15;83.79;100821.22;4911202;29;20431;-72
2022/10/22 11:11:33;;;;;;;13.57;11.40;;;;;;;18.12;82.89;100815.44;4922945;29;21050;-71
2022/10/22 11:14:09;;;;;;;15.20;12.80;;;;;;;18.13;82.22;100817.09;4932620;29;20429;-71
2022/10/22 11:16:41;;;;;;;13.13;10.60;;;;;;;18.19;82.81;100818.84;4910649;29;20470;-72
2022/10/22 11:19:18;;;;;;;16.53;13.90;;;;;;;18.03;82.75;100817.78;4916157;29;20433;-73
2022/10/22 11:21:59;;;;;;;16.97;12.97;;;;;;;17.91;83.36;100814.31;4917190;29;20958;-71
2022/10/22 11:24:34;;;;;;;17.00;11.90;;;;;;;18.07;83.41;100818.09;4897844;29;20523;-72
2022/10/22 11:27:10;;;;;;;15.43;12.07;;;;;;;17.90;83.80;100823.63;4911314;29;20441;-72
2022/10/22 11:29:44;;;;;;;15.60;13.93;;;;;;;17.78;84.90;100821.00;4925509;29;20931;-72